createdAt,value
2023-11-13T00:01:54.233Z,37.00
2023-11-13T00:04:57.179Z,38.67
2023-11-13T00:07:59.934Z,37.67
2023-11-13T00:11:02.894Z,37.00
2023-11-13T00:14:05.354Z,38.33
2023-11-13T00:17:08.328Z,41.67
2023-11-13T00:20:11.343Z,36.33
2023-11-13T00:23:14.137Z,39.00
2023-11-13T00:26:17.274Z,36.67
2023-11-13T00:29:27.484Z,44.00
2023-11-13T00:32:31.463Z,41.00
2023-11-13T00:35:34.859Z,39.33
2023-11-13T00:38:37.332Z,43.67
2023-11-13T00:41:43.218Z,39.00
2023-11-13T00:44:45.641Z,41.33
2023-11-13T00:47:49.083Z,44.67
2023-11-13T00:50:52.432Z,45.33
2023-11-13T00:53:56.308Z,41.00
2023-11-13T00:56:59.363Z,40.67
2023-11-13T01:00:04.557Z,36.33
2023-11-13T01:03:07.302Z,39.33
2023-11-13T01:06:17.998Z,42.33
2023-11-13T01:09:20.534Z,42.67
2023-11-13T01:12:24.120Z,40.00
2023-11-13T01:15:26.606Z,36.33
2023-11-13T01:18:29.327Z,33.00
2023-11-13T01:21:32.718Z,32.67
2023-11-13T01:24:36.277Z,42.33
2023-11-13T01:27:38.906Z,36.00
2023-11-13T01:30:41.701Z,40.67
2023-11-13T01:33:44.423Z,37.67
2023-11-13T01:36:47.612Z,43.33
2023-11-13T01:39:49.934Z,35.67
2023-11-13T01:42:52.731Z,38.00
2023-11-13T01:45:59.845Z,33.33
2023-11-13T01:49:03.209Z,41.67
2023-11-13T01:52:06.593Z,32.67
2023-11-13T01:55:13.260Z,34.00
2023-11-13T01:58:18.604Z,31.67
2023-11-13T02:01:21.696Z,32.67
2023-11-13T02:04:24.139Z,32.00
2023-11-13T02:07:27.776Z,27.00
2023-11-13T02:10:31.542Z,30.33
2023-11-13T02:13:36.065Z,30.67
2023-11-13T02:16:38.602Z,25.33
2023-11-13T02:19:47.009Z,16.00
2023-11-13T02:22:49.418Z,27.67
2023-11-13T02:25:52.849Z,23.75
2023-11-13T02:28:58.159Z,21.00
2023-11-13T02:32:02.656Z,25.00
2023-11-13T02:35:06.312Z,22.33
2023-11-13T02:38:09.410Z,19.33
2023-11-13T02:41:11.965Z,23.67
2023-11-13T02:44:15.860Z,25.50
2023-11-13T02:47:19.012Z,22.00
2023-11-13T02:50:22.504Z,25.25
2023-11-13T02:53:24.963Z,22.50
2023-11-13T02:56:27.779Z,22.67
2023-11-13T02:59:30.278Z,21.33
2023-11-13T03:02:34.690Z,21.00
2023-11-13T03:05:37.035Z,16.75
2023-11-13T03:08:41.936Z,14.25
2023-11-13T03:11:44.313Z,18.00
2023-11-13T03:14:47.544Z,17.75
2023-11-13T03:17:49.952Z,21.33
2023-11-13T03:20:53.315Z,25.25
2023-11-13T03:23:55.855Z,22.00
2023-11-13T03:26:59.122Z,21.50
2023-11-13T03:30:01.535Z,21.00
2023-11-13T03:33:05.076Z,22.75
2023-11-13T03:36:07.654Z,18.75
2023-11-13T03:39:10.429Z,16.00
2023-11-13T03:42:15.212Z,23.00
2023-11-13T03:45:18.059Z,23.25
2023-11-13T03:48:20.416Z,20.50
2023-11-13T03:51:24.827Z,16.75
2023-11-13T03:54:27.391Z,21.75
2023-11-13T03:57:30.955Z,21.50
2023-11-13T04:00:33.982Z,26.00
2023-11-13T04:03:36.637Z,23.00
2023-11-13T04:06:38.999Z,30.00
2023-11-13T04:09:41.794Z,20.50
2023-11-13T04:12:44.323Z,24.00
2023-11-13T04:15:47.207Z,23.00
2023-11-13T04:18:49.628Z,22.25
2023-11-13T04:21:52.530Z,28.25
2023-11-13T04:24:56.319Z,25.00
2023-11-13T04:27:59.103Z,30.75
2023-11-13T04:31:03.554Z,20.00
2023-11-13T04:34:09.012Z,24.25
2023-11-13T04:37:11.799Z,19.75
2023-11-13T04:40:14.852Z,15.25
2023-11-13T04:43:17.681Z,19.25
2023-11-13T04:46:21.059Z,18.50
2023-11-13T04:50:15.032Z,17.75
2023-11-13T04:53:37.284Z,14.75
2023-11-13T04:57:01.505Z,14.00
2023-11-13T05:00:13.896Z,14.50
2023-11-13T05:03:18.127Z,21.00
2023-11-13T05:06:24.206Z,18.67
2023-11-13T05:09:27.655Z,22.00
2023-11-13T05:12:30.955Z,14.75
2023-11-13T05:15:33.366Z,14.50
2023-11-13T05:18:36.093Z,14.50
2023-11-13T05:21:39.612Z,17.50
2023-11-13T05:24:42.581Z,18.25
2023-11-13T05:27:44.975Z,18.50
2023-11-13T05:30:47.656Z,17.50
2023-11-13T05:33:52.371Z,15.33
2023-11-13T05:36:55.191Z,17.00
2023-11-13T05:39:57.604Z,23.00
2023-11-13T05:43:00.880Z,17.33
2023-11-13T05:46:04.231Z,26.00
2023-11-13T05:49:07.377Z,22.33
2023-11-13T05:52:09.897Z,21.33
2023-11-13T05:55:12.964Z,26.00
2023-11-13T05:58:15.407Z,22.00
2023-11-13T06:01:19.836Z,23.67
2023-11-13T06:04:22.958Z,25.00
2023-11-13T06:07:25.814Z,25.33
2023-11-13T06:10:28.358Z,29.00
2023-11-13T06:13:34.181Z,23.00
2023-11-13T06:16:36.814Z,27.33
2023-11-13T06:19:40.781Z,21.00
2023-11-13T06:22:44.216Z,22.00
2023-11-13T06:25:48.855Z,31.67
2023-11-13T06:28:52.187Z,29.67
2023-11-13T06:31:55.870Z,29.33
2023-11-13T06:34:58.859Z,27.33
2023-11-13T06:38:02.805Z,25.00
2023-11-13T06:41:08.528Z,25.00
2023-11-13T06:44:12.253Z,31.00
2023-11-13T06:47:15.195Z,35.00
2023-11-13T06:50:19.681Z,35.00
2023-11-13T06:53:22.914Z,36.00
2023-11-13T06:56:27.344Z,41.67
2023-11-13T06:59:29.966Z,34.67
2023-11-13T07:02:33.506Z,34.33
2023-11-13T07:05:37.032Z,42.67
2023-11-13T07:08:40.379Z,36.33
2023-11-13T07:11:44.702Z,40.33
2023-11-13T07:14:47.512Z,36.00
2023-11-13T07:17:50.502Z,43.33
2023-11-13T07:20:53.832Z,35.67
2023-11-13T07:23:56.309Z,42.33
2023-11-13T07:26:59.716Z,37.33
2023-11-13T07:30:02.710Z,37.33
2023-11-13T07:33:06.322Z,34.00
2023-11-13T07:36:12.217Z,43.33
2023-11-13T07:39:16.481Z,41.33
2023-11-13T07:42:22.553Z,48.00
2023-11-13T07:45:26.860Z,37.00
2023-11-13T07:48:29.500Z,37.00
2023-11-13T07:51:33.753Z,42.67
2023-11-13T07:54:36.368Z,30.33
2023-11-13T07:57:42.252Z,36.67
2023-11-13T08:00:45.661Z,37.33
2023-11-13T08:03:50.306Z,50.33
2023-11-13T08:06:52.867Z,36.33
2023-11-13T08:09:55.823Z,35.67
2023-11-13T08:12:58.656Z,39.33
2023-11-13T08:16:01.579Z,35.00
2023-11-13T08:19:05.551Z,40.00
2023-11-13T08:22:08.531Z,30.67
2023-11-13T08:25:14.769Z,34.67
2023-11-13T08:28:17.730Z,35.00
2023-11-13T08:31:22.481Z,37.33
2023-11-13T08:34:25.658Z,34.33
2023-11-13T08:37:29.194Z,29.00
2023-11-13T08:40:32.078Z,31.33
2023-11-13T08:43:34.766Z,35.33
2023-11-13T08:46:37.739Z,28.33
2023-11-13T08:49:43.181Z,28.75
2023-11-13T08:52:48.644Z,34.67
2023-11-13T08:55:51.969Z,38.25
2023-11-13T08:58:57.514Z,31.75
2023-11-13T09:02:00.262Z,34.33
2023-11-13T09:05:06.645Z,19.33
2023-11-13T09:08:10.065Z,32.33
2023-11-13T09:11:18.348Z,31.00
2023-11-13T09:14:23.824Z,37.00
2023-11-13T09:17:26.706Z,37.00
2023-11-13T09:20:30.791Z,37.67
2023-11-13T09:23:34.724Z,29.33
2023-11-13T09:26:37.364Z,34.67
2023-11-13T09:29:47.882Z,31.50
2023-11-13T09:32:53.083Z,36.00
2023-11-13T09:35:56.000Z,37.33
2023-11-13T09:38:59.521Z,33.00
2023-11-13T09:42:05.984Z,36.33
2023-11-13T09:45:09.132Z,25.75
2023-11-13T09:48:17.203Z,25.00
2023-11-13T09:51:27.940Z,31.00
2023-11-13T09:54:34.155Z,33.33
2023-11-13T09:57:36.652Z,37.75
2023-11-13T10:00:42.059Z,35.00
2023-11-13T10:03:45.102Z,32.00
2023-11-13T10:06:54.639Z,29.25
2023-11-13T10:10:04.901Z,23.50
2023-11-13T10:13:11.849Z,26.00
2023-11-13T10:16:22.917Z,26.25
2023-11-13T10:19:26.071Z,30.50
2023-11-13T10:22:31.502Z,31.50
2023-11-13T10:25:47.578Z,28.75
2023-11-13T10:28:52.703Z,25.25
2023-11-13T10:31:56.017Z,31.00
2023-11-13T10:34:58.554Z,30.00
2023-11-13T10:38:04.578Z,34.75
2023-11-13T10:41:07.183Z,32.25
2023-11-13T10:44:31.983Z,27.25
2023-11-13T10:47:36.784Z,32.50
2023-11-13T10:50:39.705Z,27.50
2023-11-13T10:53:47.688Z,18.75
2023-11-13T10:56:50.763Z,29.75
2023-11-13T10:59:54.753Z,31.75
2023-11-13T11:02:59.371Z,30.50
2023-11-13T11:06:11.398Z,35.75
2023-11-13T11:09:19.867Z,31.25
2023-11-13T11:12:23.917Z,35.00
2023-11-13T11:16:06.085Z,32.00
2023-11-13T11:19:17.399Z,35.25
2023-11-13T11:22:32.522Z,32.00
2023-11-13T11:25:49.338Z,26.75
2023-11-13T11:28:57.227Z,37.00
2023-11-13T11:32:01.022Z,32.25
2023-11-13T11:35:05.819Z,35.25
2023-11-13T11:38:28.125Z,33.50
2023-11-13T11:41:42.542Z,34.25
2023-11-13T11:45:04.124Z,34.50
2023-11-13T11:48:11.205Z,31.00
2023-11-13T11:51:16.880Z,29.25
2023-11-13T11:54:24.154Z,28.50
2023-11-13T11:57:28.398Z,34.25
2023-11-13T12:00:32.754Z,32.75
2023-11-13T12:03:35.960Z,28.00
2023-11-13T12:06:40.668Z,31.75
2023-11-13T12:09:45.960Z,34.50
2023-11-13T12:12:50.391Z,35.00
2023-11-13T12:15:56.514Z,25.75
2023-11-13T12:19:00.280Z,27.75
2023-11-13T12:22:05.067Z,41.50
2023-11-13T12:25:09.729Z,32.00
2023-11-13T12:28:13.087Z,29.75
2023-11-13T12:31:22.869Z,27.25
2023-11-13T12:34:25.869Z,24.50
2023-11-13T12:37:29.426Z,21.25
2023-11-13T12:40:32.211Z,29.25
2023-11-13T12:43:35.086Z,29.00
2023-11-13T12:46:38.819Z,31.25
2023-11-13T12:49:42.034Z,29.00
2023-11-13T12:52:45.677Z,28.50
2023-11-13T12:55:52.425Z,29.25
2023-11-13T12:58:56.265Z,31.00
2023-11-13T13:02:00.129Z,26.50
2023-11-13T13:05:18.684Z,30.25
2023-11-13T13:08:29.657Z,28.75
2023-11-13T13:11:36.074Z,26.00
2023-11-13T13:14:38.992Z,24.50
2023-11-13T13:17:41.632Z,25.75
2023-11-13T13:20:44.785Z,31.25
2023-11-13T13:23:47.332Z,24.75
2023-11-13T13:26:50.642Z,27.00
2023-11-13T13:29:53.224Z,25.25
2023-11-13T13:32:56.646Z,32.75
2023-11-13T13:36:00.438Z,22.50
2023-11-13T13:39:07.882Z,30.50
2023-11-13T13:42:10.330Z,29.50
2023-11-13T13:45:18.586Z,23.25
2023-11-13T13:48:21.996Z,29.50
2023-11-13T13:51:26.404Z,29.00
2023-11-13T13:54:28.961Z,24.75
2023-11-13T13:57:31.933Z,21.50
2023-11-13T14:00:39.513Z,22.75
2023-11-13T14:03:43.209Z,25.25
2023-11-13T14:06:47.901Z,20.25
2023-11-13T14:09:53.199Z,18.50
2023-11-13T14:12:56.010Z,24.00
2023-11-13T14:16:07.035Z,17.50
2023-11-13T14:19:12.158Z,22.25
2023-11-13T14:22:15.255Z,20.00
2023-11-13T14:25:18.914Z,17.50
2023-11-13T14:28:23.563Z,17.50
2023-11-13T14:31:26.781Z,20.00
2023-11-13T14:34:29.675Z,20.00
2023-11-13T14:37:32.186Z,31.25
2023-11-13T14:40:35.531Z,21.00
2023-11-13T14:43:40.860Z,27.75
2023-11-13T14:46:43.698Z,22.00
2023-11-13T14:49:47.409Z,22.75
2023-11-13T14:52:52.394Z,22.75
2023-11-13T14:55:55.995Z,26.25
2023-11-13T14:58:59.966Z,27.00
2023-11-13T15:02:02.592Z,31.75
2023-11-13T15:05:08.612Z,22.75
2023-11-13T15:08:11.944Z,34.00
2023-11-13T15:11:14.783Z,34.00
2023-11-13T15:14:17.369Z,29.75
2023-11-13T15:17:20.441Z,29.00
2023-11-13T15:20:23.784Z,31.75
2023-11-13T15:23:39.049Z,30.75
2023-11-13T15:26:48.769Z,32.25
2023-11-13T15:29:51.564Z,27.00
2023-11-13T15:32:55.032Z,34.75
2023-11-13T15:35:57.898Z,23.75
2023-11-13T15:39:03.281Z,25.75
2023-11-13T15:42:11.506Z,31.00
2023-11-13T15:45:14.534Z,29.00
2023-11-13T15:48:18.611Z,24.75
2023-11-13T15:51:21.104Z,24.00
2023-11-13T15:54:24.013Z,28.00
2023-11-13T15:57:26.571Z,22.00
2023-11-13T16:00:30.555Z,22.75
2023-11-13T16:03:39.990Z,25.50
2023-11-13T16:06:46.840Z,24.25
2023-11-13T16:09:49.894Z,23.00
2023-11-13T16:12:55.484Z,30.50
2023-11-13T16:15:59.279Z,23.50
2023-11-13T16:19:06.126Z,30.50
2023-11-13T16:22:08.686Z,34.00
2023-11-13T16:25:12.179Z,26.00
2023-11-13T16:28:14.753Z,29.00
2023-11-13T16:31:18.187Z,29.67
2023-11-13T16:34:21.853Z,31.33
2023-11-13T16:37:25.008Z,35.33
2023-11-13T16:40:28.687Z,24.00
2023-11-13T16:43:32.881Z,30.00
2023-11-13T16:46:35.711Z,33.67
2023-11-13T16:49:43.050Z,35.67
2023-11-13T16:52:46.368Z,33.00
2023-11-13T16:55:49.516Z,25.67
2023-11-13T16:58:53.865Z,21.67
2023-11-13T17:01:56.922Z,27.33
2023-11-13T17:04:59.340Z,31.33
2023-11-13T17:08:07.446Z,30.00
2023-11-13T17:11:10.457Z,32.33
2023-11-13T17:14:14.570Z,33.00
2023-11-13T17:17:19.728Z,40.33
2023-11-13T17:20:23.301Z,29.00
2023-11-13T17:23:27.168Z,32.67
2023-11-13T17:26:30.488Z,34.00
2023-11-13T17:29:38.911Z,26.67
2023-11-13T17:32:47.005Z,29.67
2023-11-13T17:35:50.614Z,30.33
2023-11-13T17:38:53.779Z,30.33
2023-11-13T17:41:58.034Z,41.00
2023-11-13T17:45:05.602Z,33.00
2023-11-13T17:48:14.311Z,37.00
2023-11-13T17:51:20.206Z,39.33
2023-11-13T17:54:24.944Z,33.33
2023-11-13T17:57:30.974Z,33.00
2023-11-13T18:00:35.248Z,32.33
2023-11-13T18:03:39.897Z,37.67
2023-11-13T18:06:44.840Z,39.00
2023-11-13T18:09:48.597Z,40.33
2023-11-13T18:12:52.557Z,37.00
2023-11-13T18:16:05.559Z,37.00
2023-11-13T18:19:28.326Z,32.67
2023-11-13T18:22:34.749Z,35.67
2023-11-13T18:25:39.505Z,34.67
2023-11-13T18:28:50.305Z,36.00
2023-11-13T18:31:58.816Z,38.00
2023-11-13T18:35:05.296Z,40.33
2023-11-13T18:38:09.431Z,38.67
2023-11-13T18:41:14.863Z,31.33
2023-11-13T18:44:29.704Z,42.00
2023-11-13T18:47:39.832Z,42.67
2023-11-13T18:50:47.880Z,39.33
2023-11-13T18:53:57.213Z,38.67
2023-11-13T18:57:01.002Z,41.33
2023-11-13T19:00:10.197Z,38.00
2023-11-13T19:03:20.866Z,36.33
2023-11-13T19:06:29.411Z,39.33
2023-11-13T19:09:34.373Z,42.00
2023-11-13T19:12:46.942Z,50.67
2023-11-13T19:15:55.157Z,49.33
2023-11-13T19:19:01.308Z,46.00
2023-11-13T19:22:10.407Z,40.00
2023-11-13T19:25:14.586Z,39.00
2023-11-13T19:28:19.418Z,39.67
2023-11-13T19:31:28.451Z,35.33
2023-11-13T19:35:06.808Z,54.33
2023-11-13T19:38:15.531Z,53.67
2023-11-13T19:41:31.037Z,50.33
2023-11-13T19:45:06.550Z,58.67
2023-11-13T19:48:13.156Z,46.67
2023-11-13T19:51:18.570Z,58.33
2023-11-13T19:54:24.978Z,52.00
2023-11-13T19:57:29.050Z,59.00
2023-11-13T20:00:33.602Z,57.33
2023-11-13T20:03:39.519Z,60.25
2023-11-13T20:06:43.896Z,71.75
2023-11-13T20:09:49.928Z,62.33
2023-11-13T20:12:54.507Z,52.00
2023-11-13T20:16:02.537Z,69.25
2023-11-13T20:19:07.994Z,51.33
2023-11-13T20:22:12.398Z,64.33
2023-11-13T20:25:18.464Z,53.00
2023-11-13T20:28:23.166Z,63.75
2023-11-13T20:31:27.533Z,55.67
2023-11-13T20:34:33.628Z,66.75
2023-11-13T20:37:37.989Z,67.75
2023-11-13T20:40:43.147Z,66.25
2023-11-13T20:43:47.394Z,68.50
2023-11-13T20:46:52.974Z,72.75
2023-11-13T20:49:57.279Z,69.25
2023-11-13T20:53:02.271Z,66.00
2023-11-13T20:56:07.371Z,59.25
2023-11-13T20:59:13.011Z,53.25
2023-11-13T21:02:16.960Z,70.00
2023-11-13T21:05:21.024Z,65.75
2023-11-13T21:08:27.666Z,64.75
2023-11-13T21:11:32.013Z,58.25
2023-11-13T21:14:35.092Z,70.25
2023-11-13T21:17:38.232Z,63.75
2023-11-13T21:20:43.553Z,54.67
2023-11-13T21:23:46.332Z,62.75
2023-11-13T21:26:50.264Z,62.33
2023-11-13T21:29:53.636Z,66.33
2023-11-13T21:32:57.576Z,59.67
2023-11-13T21:36:01.417Z,63.33
2023-11-13T21:39:08.579Z,66.33
2023-11-13T21:42:12.222Z,54.00
2023-11-13T21:45:18.458Z,53.00
2023-11-13T21:48:21.851Z,60.00
2023-11-13T21:51:24.691Z,52.67
2023-11-13T21:54:28.016Z,51.67
2023-11-13T21:57:33.065Z,53.00
2023-11-13T22:00:37.989Z,53.67
2023-11-13T22:03:47.849Z,56.33
2023-11-13T22:06:51.349Z,59.00
2023-11-13T22:09:53.910Z,41.67
2023-11-13T22:12:58.030Z,56.67
2023-11-13T22:16:00.868Z,60.33
2023-11-13T22:19:10.575Z,58.00
2023-11-13T22:22:13.086Z,46.67
2023-11-13T22:25:15.944Z,49.00
2023-11-13T22:28:18.557Z,54.33
2023-11-13T22:31:22.736Z,58.67
2023-11-13T22:34:25.487Z,53.00
2023-11-13T22:37:28.316Z,47.67
2023-11-13T22:40:35.923Z,56.00
2023-11-13T22:43:42.439Z,44.00
2023-11-13T22:46:46.589Z,43.33
2023-11-13T22:49:51.097Z,42.67
2023-11-13T22:52:53.683Z,50.00
2023-11-13T22:55:56.690Z,44.33
2023-11-13T22:59:00.526Z,60.67
2023-11-13T23:02:03.405Z,51.00
2023-11-13T23:05:06.322Z,48.33
2023-11-13T23:08:09.337Z,45.33
2023-11-13T23:11:13.301Z,42.33
2023-11-13T23:14:17.538Z,47.67
2023-11-13T23:17:20.224Z,44.00
2023-11-13T23:20:25.859Z,53.00
2023-11-13T23:23:28.492Z,41.00
2023-11-13T23:26:31.287Z,41.00
2023-11-13T23:29:33.992Z,42.00
2023-11-13T23:32:37.131Z,45.00
2023-11-13T23:35:42.454Z,53.33
2023-11-13T23:38:45.369Z,47.67
2023-11-13T23:41:47.913Z,50.33
2023-11-13T23:44:51.956Z,49.00
2023-11-13T23:47:55.128Z,44.67
2023-11-13T23:50:58.966Z,53.00
2023-11-13T23:54:06.013Z,59.00
2023-11-13T23:57:09.029Z,66.33
